Terminal Aerodrome Forecast
Issued by NWS Tampa Bay Area, FL

Home | Current Version | Previous Version | Text Only | Print | Product List | Glossary On
Versions: 1 2 3 4 5 6 7 8 9 10 11 12 13 14 15 16 17 18 19 20
000
FTUS42 KTBW 250500
TAFSRQ
TAF
KSRQ 250535Z 2506/2606 VRB03KT P6SM SKC
     FM250800 VRB02KT 5SM BR SKC
     FM251300 27005KT P6SM FEW030
     FM251700 27011KT P6SM FEW035
     FM260100 29005KT P6SM SKC=

USA.gov is the U.S. government's official web portal to all federal, state and local government web resources and services.